Time;durP1;ratioP1;P1;durP2;ratioP2;P2;SDS_P1;SDS_P2;PMS_P1;PMS_P2;Temp;Humidity;BMP_temperature;BMP_pressure;BME280_temperature;BME280_humidity;BME280_pressure;Samples;Min_cycle;Max_cycle;Signal;HPM_P1;HPM_P2
2024/04/09 00:01:01;;;;;;;0.50;0.50;;;;;;;;;;5306444;26;20638;-76
2024/04/09 00:03:27;;;;;;;0.63;0.63;;;;;;;;;;5307457;26;20839;-77
2024/04/09 00:05:55;;;;;;;0.68;0.68;;;;;;;;;;5304231;26;20364;-74
2024/04/09 00:08:21;;;;;;;0.70;0.70;;;;;;;;;;5307878;26;20254;-76
2024/04/09 00:10:49;;;;;;;0.60;0.60;;;;;;;;;;5307265;26;20319;-76
2024/04/09 00:13:15;;;;;;;0.60;0.60;;;;;;;;;;5307191;26;20380;-76
2024/04/09 00:15:44;;;;;;;0.60;0.60;;;;;;;;;;5306999;26;20286;-77
2024/04/09 00:18:14;;;;;;;0.60;0.60;;;;;;;;;;5306674;26;20611;-76
2024/04/09 00:20:42;;;;;;;0.60;0.60;;;;;;;;;;5303221;26;20720;-77
2024/04/09 00:23:09;;;;;;;0.57;0.57;;;;;;;;;;5305018;26;20259;-75
2024/04/09 00:25:37;;;;;;;0.60;0.60;;;;;;;;;;5304171;26;23514;-77
2024/04/09 00:28:03;;;;;;;0.52;0.52;;;;;;;;;;5304280;26;20315;-77
2024/04/09 00:30:31;;;;;;;0.70;0.70;;;;;;;;;;5305555;26;20830;-76
2024/04/09 00:32:56;;;;;;;0.60;0.60;;;;;;;;;;5306491;26;20285;-77
2024/04/09 00:35:27;;;;;;;0.70;0.70;;;;;;;;;;5298230;26;20251;-76
2024/04/09 00:37:54;;;;;;;0.60;0.60;;;;;;;;;;5306179;26;20297;-76
2024/04/09 00:40:24;;;;;;;0.68;0.68;;;;;;;;;;5303760;26;20262;-76
2024/04/09 00:42:50;;;;;;;0.52;0.52;;;;;;;;;;5307109;26;20341;-75
2024/04/09 00:45:19;;;;;;;0.60;0.60;;;;;;;;;;5302829;26;20825;-77
2024/04/09 00:47:46;;;;;;;0.60;0.60;;;;;;;;;;5325984;26;20732;-76
2024/04/09 00:50:14;;;;;;;0.60;0.60;;;;;;;;;;5299365;26;20583;-75
2024/04/09 00:52:44;;;;;;;0.70;0.70;;;;;;;;;;5307500;26;20846;-76
2024/04/09 00:55:14;;;;;;;0.60;0.60;;;;;;;;;;5304283;26;20250;-76
2024/04/09 00:57:41;;;;;;;0.60;0.60;;;;;;;;;;5316755;26;20316;-76
2024/04/09 01:00:12;;;;;;;0.63;0.63;;;;;;;;;;5311366;26;20258;-76
2024/04/09 01:02:37;;;;;;;0.60;0.60;;;;;;;;;;5309305;26;21014;-76
2024/04/09 01:05:06;;;;;;;0.82;0.82;;;;;;;;;;5300986;26;20307;-76
2024/04/09 01:07:32;;;;;;;0.70;0.70;;;;;;;;;;5306152;26;20300;-76
2024/04/09 01:10:03;;;;;;;0.60;0.60;;;;;;;;;;5303520;26;20243;-76
2024/04/09 01:12:29;;;;;;;0.60;0.60;;;;;;;;;;5307546;26;20278;-76
2024/04/09 01:14:57;;;;;;;0.60;0.60;;;;;;;;;;5301994;26;20255;-75
2024/04/09 01:17:24;;;;;;;0.65;0.65;;;;;;;;;;5304736;26;20885;-76
2024/04/09 01:19:52;;;;;;;0.65;0.65;;;;;;;;;;5298302;26;20250;-76
2024/04/09 01:22:17;;;;;;;0.60;0.60;;;;;;;;;;5302388;26;20250;-76
2024/04/09 01:24:48;;;;;;;0.60;0.60;;;;;;;;;;5304596;26;20743;-75
2024/04/09 01:27:14;;;;;;;1.27;1.27;;;;;;;;;;5303478;26;20290;-75
2024/04/09 01:29:43;;;;;;;0.60;0.60;;;;;;;;;;5301061;26;20242;-77
2024/04/09 01:32:08;;;;;;;0.60;0.60;;;;;;;;;;5305431;26;20723;-76
2024/04/09 01:34:36;;;;;;;0.60;0.60;;;;;;;;;;5294662;26;20745;-76
2024/04/09 01:37:01;;;;;;;0.70;0.70;;;;;;;;;;5299949;26;20242;-75
2024/04/09 01:39:30;;;;;;;0.60;0.60;;;;;;;;;;5303124;26;20246;-77
2024/04/09 01:41:58;;;;;;;0.70;0.70;;;;;;;;;;5303290;26;20239;-76
2024/04/09 01:44:26;;;;;;;0.50;0.50;;;;;;;;;;5306248;26;20709;-77
2024/04/09 01:46:51;;;;;;;0.65;0.65;;;;;;;;;;5318896;26;20246;-76
2024/04/09 01:49:21;;;;;;;0.70;0.70;;;;;;;;;;5301942;26;20250;-76
2024/04/09 01:51:46;;;;;;;0.70;0.70;;;;;;;;;;5304772;26;20338;-77
2024/04/09 01:54:14;;;;;;;0.70;0.70;;;;;;;;;;5308249;26;20389;-75
2024/04/09 01:56:40;;;;;;;3.25;3.00;;;;;;;;;;5303106;26;20647;-76
2024/04/09 01:59:11;;;;;;;0.60;0.60;;;;;;;;;;5303368;26;20399;-74
2024/04/09 02:01:37;;;;;;;0.65;0.65;;;;;;;;;;5304313;26;20860;-75
2024/04/09 02:04:05;;;;;;;0.60;0.60;;;;;;;;;;5305032;26;20255;-76
2024/04/09 02:06:31;;;;;;;0.60;0.60;;;;;;;;;;5303367;26;20289;-76
2024/04/09 02:08:59;;;;;;;0.60;0.60;;;;;;;;;;5302813;26;20738;-76
2024/04/09 02:11:28;;;;;;;0.65;0.65;;;;;;;;;;5305314;26;20605;-76
2024/04/09 02:13:56;;;;;;;0.55;0.55;;;;;;;;;;5303460;26;20739;-76
2024/04/09 02:16:24;;;;;;;0.55;0.55;;;;;;;;;;5303838;26;20698;-77
2024/04/09 02:18:52;;;;;;;0.60;0.60;;;;;;;;;;5301871;26;20295;-76
2024/04/09 02:21:20;;;;;;;0.65;0.65;;;;;;;;;;5296950;26;20246;-76
2024/04/09 02:23:48;;;;;;;0.70;0.70;;;;;;;;;;5303230;26;20577;-76
2024/04/09 02:26:13;;;;;;;0.50;0.50;;;;;;;;;;5302634;26;20250;-78
2024/04/09 02:28:41;;;;;;;0.70;0.70;;;;;;;;;;5303575;26;20817;-77
2024/04/09 02:31:07;;;;;;;0.60;0.60;;;;;;;;;;5301475;26;20235;-76
2024/04/09 02:33:38;;;;;;;0.60;0.60;;;;;;;;;;5302850;26;20301;-77
2024/04/09 02:36:05;;;;;;;0.70;0.70;;;;;;;;;;5301305;26;20254;-76
2024/04/09 02:38:35;;;;;;;0.50;0.50;;;;;;;;;;5303630;26;20251;-76
2024/04/09 02:41:00;;;;;;;0.57;0.57;;;;;;;;;;5302219;26;20310;-74
2024/04/09 02:43:28;;;;;;;0.60;0.60;;;;;;;;;;5304092;26;20254;-76
2024/04/09 02:45:54;;;;;;;0.70;0.70;;;;;;;;;;5304971;26;20929;-78
2024/04/09 02:48:22;;;;;;;0.50;0.50;;;;;;;;;;5314852;26;20248;-76
2024/04/09 02:50:55;;;;;;;0.65;0.65;;;;;;;;;;5302092;26;20310;-76
2024/04/09 02:53:23;;;;;;;0.60;0.60;;;;;;;;;;5306255;26;20325;-77
2024/04/09 02:55:57;;;;;;;0.63;0.63;;;;;;;;;;5307300;26;20766;-77
2024/04/09 02:58:25;;;;;;;0.60;0.60;;;;;;;;;;5304952;26;20350;-76
2024/04/09 03:00:51;;;;;;;0.60;0.60;;;;;;;;;;5309728;26;20811;-75
2024/04/09 03:03:19;;;;;;;0.60;0.60;;;;;;;;;;5308229;26;20565;-76
2024/04/09 03:05:44;;;;;;;0.70;0.70;;;;;;;;;;5306110;26;20247;-76
2024/04/09 03:08:15;;;;;;;0.60;0.60;;;;;;;;;;5304632;26;20240;-75
2024/04/09 03:10:41;;;;;;;0.60;0.60;;;;;;;;;;5309103;26;20285;-77
2024/04/09 03:13:09;;;;;;;0.60;0.60;;;;;;;;;;5305887;26;23191;-76
2024/04/09 03:15:35;;;;;;;0.60;0.60;;;;;;;;;;5304217;26;20269;-77
2024/04/09 03:18:03;;;;;;;0.70;0.70;;;;;;;;;;5313511;26;20248;-75
2024/04/09 03:20:28;;;;;;;0.80;0.80;;;;;;;;;;5309816;26;20246;-75
2024/04/09 03:22:56;;;;;;;0.70;0.70;;;;;;;;;;5311857;26;20313;-76
2024/04/09 03:25:24;;;;;;;0.60;0.60;;;;;;;;;;5307416;26;20636;-77
2024/04/09 03:27:52;;;;;;;0.60;0.60;;;;;;;;;;5310247;26;20339;-77
2024/04/09 03:30:18;;;;;;;0.68;0.68;;;;;;;;;;5308185;26;20286;-76
2024/04/09 03:32:46;;;;;;;0.60;0.60;;;;;;;;;;5310552;26;20487;-77
2024/04/09 03:35:11;;;;;;;0.60;0.60;;;;;;;;;;5304587;26;20780;-75
2024/04/09 03:37:39;;;;;;;0.60;0.60;;;;;;;;;;5313571;26;20286;-77
2024/04/09 03:40:09;;;;;;;0.68;0.68;;;;;;;;;;5317905;26;21045;-77
2024/04/09 03:42:40;;;;;;;0.70;0.70;;;;;;;;;;5314380;26;22317;-76
2024/04/09 03:45:09;;;;;;;0.60;0.60;;;;;;;;;;5307048;26;20293;-76
2024/04/09 03:47:37;;;;;;;0.68;0.68;;;;;;;;;;5311055;26;21156;-76
2024/04/09 03:50:02;;;;;;;0.60;0.60;;;;;;;;;;5331076;26;20250;-76
2024/04/09 03:52:31;;;;;;;0.60;0.60;;;;;;;;;;5312443;26;20313;-77
2024/04/09 03:54:56;;;;;;;0.70;0.70;;;;;;;;;;5311350;26;20247;-76
2024/04/09 03:57:25;;;;;;;0.57;0.57;;;;;;;;;;5314728;26;20335;-76
2024/04/09 03:59:53;;;;;;;0.60;0.60;;;;;;;;;;5307952;26;20281;-75
2024/04/09 04:02:21;;;;;;;0.68;0.68;;;;;;;;;;5310641;26;20334;-76
2024/04/09 04:04:46;;;;;;;0.60;0.60;;;;;;;;;;5309143;26;20276;-76
2024/04/09 04:07:16;;;;;;;0.60;0.60;;;;;;;;;;5306156;26;20285;-77
2024/04/09 04:09:41;;;;;;;0.60;0.60;;;;;;;;;;5305363;26;20263;-76
2024/04/09 04:12:09;;;;;;;0.60;0.60;;;;;;;;;;5306704;26;20398;-77
2024/04/09 04:14:34;;;;;;;0.60;0.60;;;;;;;;;;5303535;26;20727;-76
2024/04/09 04:17:07;;;;;;;0.55;0.55;;;;;;;;;;5309516;26;20290;-76
2024/04/09 04:19:33;;;;;;;0.70;0.70;;;;;;;;;;5316634;26;20803;-77
2024/04/09 04:22:01;;;;;;;0.57;0.57;;;;;;;;;;5309286;26;20263;-76
2024/04/09 04:24:29;;;;;;;0.65;0.65;;;;;;;;;;5307251;26;20254;-76
2024/04/09 04:26:57;;;;;;;0.60;0.60;;;;;;;;;;5307908;26;20246;-76
2024/04/09 04:29:22;;;;;;;0.60;0.60;;;;;;;;;;5310391;26;20292;-77
2024/04/09 04:31:51;;;;;;;0.75;0.75;;;;;;;;;;5305939;26;20297;-76
2024/04/09 04:34:20;;;;;;;0.60;0.60;;;;;;;;;;5304951;26;20254;-77
2024/04/09 04:36:48;;;;;;;0.60;0.60;;;;;;;;;;5304470;26;20239;-77
2024/04/09 04:39:13;;;;;;;0.60;0.60;;;;;;;;;;5311706;26;20564;-76
2024/04/09 04:41:41;;;;;;;0.60;0.60;;;;;;;;;;5307314;26;20781;-77
2024/04/09 04:44:07;;;;;;;0.60;0.60;;;;;;;;;;5305962;26;20294;-76
2024/04/09 04:46:35;;;;;;;0.70;0.70;;;;;;;;;;5304271;26;20255;-76
2024/04/09 04:49:00;;;;;;;0.60;0.60;;;;;;;;;;5314016;26;20259;-76
2024/04/09 04:51:31;;;;;;;0.60;0.60;;;;;;;;;;5300391;26;20294;-77
2024/04/09 04:53:56;;;;;;;0.70;0.70;;;;;;;;;;5308182;26;20258;-76
2024/04/09 04:56:25;;;;;;;0.60;0.60;;;;;;;;;;5303869;26;20289;-76
2024/04/09 04:58:50;;;;;;;0.65;0.65;;;;;;;;;;5306255;26;20243;-76
2024/04/09 05:01:18;;;;;;;0.70;0.70;;;;;;;;;;5301892;26;20305;-77
2024/04/09 05:03:43;;;;;;;0.60;0.60;;;;;;;;;;5307986;26;20240;-77
2024/04/09 05:06:12;;;;;;;0.60;0.60;;;;;;;;;;5311929;26;20306;-75
2024/04/09 05:08:40;;;;;;;0.65;0.65;;;;;;;;;;5308604;26;20258;-76
2024/04/09 05:11:11;;;;;;;0.60;0.60;;;;;;;;;;5303447;26;20607;-77
2024/04/09 05:13:36;;;;;;;0.70;0.70;;;;;;;;;;5304130;26;20884;-75
2024/04/09 05:16:05;;;;;;;0.50;0.50;;;;;;;;;;5304491;26;20281;-76
2024/04/09 05:18:30;;;;;;;0.60;0.60;;;;;;;;;;5307332;26;20250;-77
2024/04/09 05:20:58;;;;;;;0.60;0.60;;;;;;;;;;5304847;26;20730;-76
2024/04/09 05:23:24;;;;;;;0.70;0.70;;;;;;;;;;5306856;26;20650;-76
2024/04/09 05:25:55;;;;;;;0.60;0.60;;;;;;;;;;5305870;26;20250;-78
2024/04/09 05:28:20;;;;;;;0.70;0.70;;;;;;;;;;5307270;26;20564;-76
2024/04/09 05:30:48;;;;;;;0.60;0.60;;;;;;;;;;5304904;26;20246;-78
2024/04/09 05:33:14;;;;;;;0.60;0.60;;;;;;;;;;5305810;26;20250;-76
2024/04/09 05:35:42;;;;;;;0.70;0.70;;;;;;;;;;5302323;26;20592;-76
2024/04/09 05:38:07;;;;;;;0.75;0.75;;;;;;;;;;5315807;26;21326;-76
2024/04/09 05:40:36;;;;;;;0.70;0.70;;;;;;;;;;5311278;26;20285;-76
2024/04/09 05:43:04;;;;;;;0.73;0.73;;;;;;;;;;5304660;26;20537;-76
2024/04/09 05:45:32;;;;;;;0.70;0.70;;;;;;;;;;5308150;26;20247;-76
2024/04/09 05:47:57;;;;;;;0.63;0.63;;;;;;;;;;5317204;26;20255;-76
2024/04/09 05:50:25;;;;;;;0.70;0.70;;;;;;;;;;5314139;26;20246;-77
2024/04/09 05:52:51;;;;;;;0.60;0.60;;;;;;;;;;5307226;26;20251;-75
2024/04/09 05:55:19;;;;;;;0.70;0.70;;;;;;;;;;5304275;26;20278;-75
2024/04/09 05:57:45;;;;;;;0.60;0.60;;;;;;;;;;5300397;26;22032;-77
2024/04/09 06:00:19;;;;;;;0.63;0.63;;;;;;;;;;5306217;26;20561;-75
2024/04/09 06:02:44;;;;;;;0.68;0.68;;;;;;;;;;5306499;26;20262;-76
2024/04/09 06:05:12;;;;;;;0.60;0.60;;;;;;;;;;5301687;26;21503;-75
2024/04/09 06:07:38;;;;;;;0.70;0.70;;;;;;;;;;5305340;26;20282;-77
2024/04/09 06:10:06;;;;;;;0.60;0.60;;;;;;;;;;5302380;26;20239;-77
2024/04/09 06:12:32;;;;;;;0.60;0.60;;;;;;;;;;5307593;26;20254;-76
2024/04/09 06:15:00;;;;;;;0.70;0.70;;;;;;;;;;5302847;26;20239;-77
2024/04/09 06:17:28;;;;;;;0.70;0.70;;;;;;;;;;5304180;26;20737;-79
2024/04/09 06:19:57;;;;;;;0.60;0.60;;;;;;;;;;5313567;26;20774;-75
2024/04/09 06:22:22;;;;;;;0.80;0.80;;;;;;;;;;5319691;26;20260;-74
2024/04/09 06:24:50;;;;;;;0.60;0.60;;;;;;;;;;5325095;26;20309;-76
2024/04/09 06:27:16;;;;;;;0.68;0.68;;;;;;;;;;5322338;26;20258;-75
2024/04/09 06:29:44;;;;;;;0.65;0.65;;;;;;;;;;5320699;26;20589;-77
2024/04/09 06:32:10;;;;;;;0.70;0.70;;;;;;;;;;5324853;26;20286;-76
2024/04/09 06:34:42;;;;;;;0.60;0.60;;;;;;;;;;5324925;26;20948;-78
2024/04/09 06:37:07;;;;;;;0.60;0.60;;;;;;;;;;5324197;26;20255;-77
2024/04/09 06:39:35;;;;;;;0.70;0.70;;;;;;;;;;5322882;26;20325;-77
2024/04/09 06:42:03;;;;;;;0.57;0.57;;;;;;;;;;5323502;26;20287;-76
2024/04/09 06:44:31;;;;;;;0.60;0.60;;;;;;;;;;5314453;26;20298;-77
2024/04/09 06:46:56;;;;;;;0.60;0.60;;;;;;;;;;5321551;26;20247;-76
2024/04/09 06:49:24;;;;;;;0.60;0.60;;;;;;;;;;5308138;26;20305;-79
2024/04/09 06:51:52;;;;;;;0.60;0.60;;;;;;;;;;5325659;26;20259;-75
2024/04/09 06:54:20;;;;;;;0.60;0.60;;;;;;;;;;5321263;26;20281;-78
2024/04/09 06:56:46;;;;;;;0.60;0.60;;;;;;;;;;5333311;26;20246;-77
2024/04/09 06:59:14;;;;;;;0.60;0.60;;;;;;;;;;5325427;26;20281;-76
2024/04/09 07:01:39;;;;;;;0.60;0.60;;;;;;;;;;5326590;26;20281;-76
2024/04/09 07:04:07;;;;;;;0.60;0.60;;;;;;;;;;5319437;26;20247;-77
2024/04/09 07:06:33;;;;;;;0.63;0.63;;;;;;;;;;5327332;26;20250;-76
2024/04/09 07:09:04;;;;;;;0.60;0.60;;;;;;;;;;5335654;26;20281;-77
2024/04/09 07:11:29;;;;;;;0.50;0.50;;;;;;;;;;5323340;26;20258;-78
2024/04/09 07:13:58;;;;;;;0.60;0.60;;;;;;;;;;5316189;26;20350;-78
2024/04/09 07:16:23;;;;;;;0.60;0.60;;;;;;;;;;5320340;26;20937;-78
2024/04/09 07:18:51;;;;;;;0.52;0.52;;;;;;;;;;5322276;26;20346;-77
2024/04/09 07:21:17;;;;;;;0.60;0.60;;;;;;;;;;5313666;26;20246;-78
2024/04/09 07:23:46;;;;;;;0.60;0.60;;;;;;;;;;5320353;26;20360;-77
2024/04/09 07:26:14;;;;;;;0.60;0.60;;;;;;;;;;5310020;26;20254;-79
2024/04/09 07:28:42;;;;;;;0.60;0.60;;;;;;;;;;5311590;26;20247;-77
2024/04/09 07:31:10;;;;;;;0.60;0.60;;;;;;;;;;5313559;26;20274;-79
2024/04/09 07:33:41;;;;;;;0.70;0.70;;;;;;;;;;5315290;26;20562;-78
2024/04/09 07:36:06;;;;;;;0.70;0.70;;;;;;;;;;5305864;26;20342;-77
2024/04/09 07:38:34;;;;;;;0.60;0.60;;;;;;;;;;5316426;26;20255;-77
2024/04/09 07:41:00;;;;;;;0.60;0.60;;;;;;;;;;5308789;26;20759;-76
2024/04/09 07:43:31;;;;;;;0.50;0.50;;;;;;;;;;5322148;26;20252;-76
2024/04/09 07:45:57;;;;;;;0.60;0.60;;;;;;;;;;5312998;26;20289;-78
2024/04/09 07:48:25;;;;;;;0.50;0.50;;;;;;;;;;5332309;26;20255;-78
2024/04/09 07:50:51;;;;;;;0.70;0.70;;;;;;;;;;5310776;26;20350;-77
2024/04/09 07:53:20;;;;;;;0.60;0.60;;;;;;;;;;5314691;26;20254;-77
2024/04/09 07:55:46;;;;;;;0.60;0.60;;;;;;;;;;5308767;26;20916;-77
2024/04/09 07:58:14;;;;;;;0.63;0.63;;;;;;;;;;5310513;26;20345;-76
2024/04/09 08:00:43;;;;;;;0.60;0.60;;;;;;;;;;5311684;26;20537;-76
2024/04/09 08:03:11;;;;;;;0.63;0.63;;;;;;;;;;5315419;26;20297;-76
2024/04/09 08:05:36;;;;;;;0.60;0.60;;;;;;;;;;5308069;26;20247;-77
2024/04/09 08:08:05;;;;;;;0.63;0.63;;;;;;;;;;5311757;26;20254;-77
2024/04/09 08:10:31;;;;;;;0.57;0.57;;;;;;;;;;5309277;26;20318;-78
2024/04/09 08:13:00;;;;;;;0.57;0.57;;;;;;;;;;5311857;26;20293;-78
2024/04/09 08:15:26;;;;;;;0.50;0.50;;;;;;;;;;5307727;26;20964;-78
2024/04/09 08:17:57;;;;;;;0.50;0.50;;;;;;;;;;5307765;26;20285;-78
2024/04/09 08:20:22;;;;;;;0.57;0.57;;;;;;;;;;5307462;26;20563;-77
2024/04/09 08:22:51;;;;;;;0.60;0.60;;;;;;;;;;5312154;26;21216;-76
2024/04/09 08:25:17;;;;;;;0.60;0.60;;;;;;;;;;5291899;26;20968;-79
2024/04/09 08:27:45;;;;;;;0.70;0.70;;;;;;;;;;5293912;26;20321;-78
2024/04/09 08:30:12;;;;;;;0.60;0.60;;;;;;;;;;5296295;26;20385;-76
2024/04/09 08:32:40;;;;;;;0.60;0.60;;;;;;;;;;5299491;26;20656;-78
2024/04/09 08:35:11;;;;;;;0.60;0.60;;;;;;;;;;5290674;26;20310;-76
2024/04/09 08:37:40;;;;;;;1.48;1.48;;;;;;;;;;5299335;26;20365;-76
2024/04/09 08:40:09;;;;;;;0.50;0.50;;;;;;;;;;5294569;26;20583;-78
2024/04/09 08:42:38;;;;;;;0.68;0.68;;;;;;;;;;5298620;26;21269;-78
2024/04/09 08:45:06;;;;;;;0.50;0.50;;;;;;;;;;5307019;26;21005;-78
2024/04/09 08:47:34;;;;;;;0.68;0.68;;;;;;;;;;5301952;26;20385;-78
2024/04/09 08:49:59;;;;;;;0.65;0.65;;;;;;;;;;5290004;26;20850;-78
2024/04/09 08:52:32;;;;;;;0.68;0.68;;;;;;;;;;5297632;26;20445;-78
2024/04/09 08:54:57;;;;;;;0.65;0.65;;;;;;;;;;5296698;26;20643;-77
2024/04/09 08:57:32;;;;;;;0.63;0.63;;;;;;;;;;5295766;26;20351;-76
2024/04/09 08:59:59;;;;;;;0.60;0.60;;;;;;;;;;5298471;26;20742;-77
2024/04/09 09:02:27;;;;;;;0.60;0.60;;;;;;;;;;5299366;26;20262;-77
2024/04/09 09:04:52;;;;;;;0.80;0.80;;;;;;;;;;5294491;26;20761;-77
2024/04/09 09:07:22;;;;;;;0.60;0.60;;;;;;;;;;5297628;26;20277;-76
2024/04/09 09:09:50;;;;;;;0.60;0.60;;;;;;;;;;5293388;26;22943;-77
2024/04/09 09:12:18;;;;;;;0.68;0.68;;;;;;;;;;5294784;26;20404;-78
2024/04/09 09:14:52;;;;;;;0.65;0.65;;;;;;;;;;5299432;26;20242;-78
2024/04/09 09:17:20;;;;;;;0.50;0.50;;;;;;;;;;5305990;26;20348;-77
2024/04/09 09:19:46;;;;;;;0.60;0.60;;;;;;;;;;5299464;26;20250;-78
2024/04/09 09:22:14;;;;;;;0.60;0.60;;;;;;;;;;5297676;26;20238;-78
2024/04/09 09:24:40;;;;;;;0.50;0.50;;;;;;;;;;5293303;26;20297;-76
2024/04/09 09:27:10;;;;;;;0.68;0.68;;;;;;;;;;5301386;26;20310;-78
2024/04/09 09:29:36;;;;;;;0.75;0.75;;;;;;;;;;5294574;26;20302;-77
2024/04/09 09:32:06;;;;;;;0.60;0.60;;;;;;;;;;5298245;26;20255;-77
2024/04/09 09:34:36;;;;;;;0.65;0.65;;;;;;;;;;5294886;26;20247;-76
2024/04/09 09:37:07;;;;;;;0.60;0.60;;;;;;;;;;5300437;26;20846;-79
2024/04/09 09:39:35;;;;;;;0.70;0.70;;;;;;;;;;5303494;26;20651;-78
2024/04/09 09:42:03;;;;;;;0.60;0.60;;;;;;;;;;5309577;26;20251;-80
2024/04/09 09:44:35;;;;;;;0.70;0.70;;;;;;;;;;5308537;26;20250;-78
2024/04/09 09:47:04;;;;;;;0.60;0.60;;;;;;;;;;5306950;26;20759;-79
2024/04/09 09:49:32;;;;;;;0.60;0.60;;;;;;;;;;5298693;26;20630;-79
2024/04/09 09:51:58;;;;;;;0.60;0.60;;;;;;;;;;5300412;26;20618;-79
2024/04/09 09:54:27;;;;;;;0.70;0.70;;;;;;;;;;5302742;26;20239;-80
2024/04/09 09:56:53;;;;;;;0.70;0.70;;;;;;;;;;5301688;26;21472;-79
2024/04/09 09:59:24;;;;;;;0.70;0.70;;;;;;;;;;5296292;26;20752;-79
2024/04/09 10:01:54;;;;;;;0.60;0.60;;;;;;;;;;5296664;26;20341;-80
2024/04/09 10:04:23;;;;;;;0.65;0.65;;;;;;;;;;5307903;26;21262;-79
2024/04/09 10:06:55;;;;;;;0.70;0.70;;;;;;;;;;5300688;26;20633;-77
2024/04/09 10:09:38;;;;;;;0.60;0.60;;;;;;;;;;5305424;26;20300;-79
2024/04/09 10:12:04;;;;;;;0.70;0.70;;;;;;;;;;5306800;26;20274;-79
2024/04/09 10:14:39;;;;;;;0.60;0.60;;;;;;;;;;5303447;26;20251;-80
2024/04/09 10:17:11;;;;;;;0.70;0.70;;;;;;;;;;5304692;26;20838;-79
2024/04/09 10:19:39;;;;;;;0.60;0.60;;;;;;;;;;5301666;26;20244;-79
2024/04/09 10:22:05;;;;;;;0.60;0.60;;;;;;;;;;5304932;26;20258;-79
2024/04/09 10:24:36;;;;;;;0.70;0.70;;;;;;;;;;5305234;26;20301;-79
2024/04/09 10:27:04;;;;;;;0.70;0.70;;;;;;;;;;5304569;26;21609;-79
2024/04/09 10:29:32;;;;;;;0.60;0.60;;;;;;;;;;5300756;26;20636;-79
2024/04/09 10:31:57;;;;;;;0.60;0.60;;;;;;;;;;5304661;26;20250;-78
2024/04/09 10:34:28;;;;;;;0.60;0.60;;;;;;;;;;5299694;26;20739;-80
2024/04/09 10:36:54;;;;;;;0.60;0.60;;;;;;;;;;5305163;26;20743;-79
2024/04/09 10:39:24;;;;;;;0.60;0.60;;;;;;;;;;5304678;26;20246;-79
2024/04/09 10:41:52;;;;;;;0.70;0.70;;;;;;;;;;5315234;26;20261;-80
2024/04/09 10:44:20;;;;;;;0.60;0.60;;;;;;;;;;5302516;26;20243;-78
2024/04/09 10:46:46;;;;;;;0.60;0.60;;;;;;;;;;5300779;26;20258;-79
2024/04/09 10:49:14;;;;;;;0.65;0.65;;;;;;;;;;5300264;26;20622;-80
2024/04/09 10:51:43;;;;;;;0.68;0.68;;;;;;;;;;5303112;26;20634;-78
2024/04/09 10:54:15;;;;;;;0.80;0.80;;;;;;;;;;5302689;26;20293;-78
2024/04/09 10:56:41;;;;;;;0.70;0.70;;;;;;;;;;5299941;26;20246;-79
2024/04/09 10:59:15;;;;;;;0.77;0.77;;;;;;;;;;5302200;26;20591;-80
2024/04/09 11:01:41;;;;;;;0.70;0.70;;;;;;;;;;5309068;26;20262;-78
2024/04/09 11:04:09;;;;;;;0.60;0.60;;;;;;;;;;5307419;26;20809;-78
2024/04/09 11:06:36;;;;;;;0.60;0.60;;;;;;;;;;5301804;26;20710;-80
2024/04/09 11:09:08;;;;;;;0.70;0.70;;;;;;;;;;5305339;26;20285;-80
2024/04/09 11:11:34;;;;;;;0.60;0.60;;;;;;;;;;5305341;26;20737;-79
2024/04/09 11:14:02;;;;;;;0.60;0.60;;;;;;;;;;5305023;26;20783;-80
2024/04/09 11:16:27;;;;;;;0.70;0.70;;;;;;;;;;5307245;26;20297;-80
2024/04/09 11:18:56;;;;;;;0.60;0.60;;;;;;;;;;5309510;26;20905;-80
2024/04/09 11:21:22;;;;;;;0.70;0.70;;;;;;;;;;5303427;26;20351;-80
2024/04/09 11:23:50;;;;;;;0.60;0.60;;;;;;;;;;5310723;26;20246;-79
2024/04/09 11:26:20;;;;;;;0.70;0.70;;;;;;;;;;5307249;26;20297;-80
2024/04/09 11:28:52;;;;;;;0.50;0.50;;;;;;;;;;5304164;26;20355;-78
2024/04/09 11:31:19;;;;;;;0.70;0.70;;;;;;;;;;5307596;26;20248;-80
2024/04/09 11:33:47;;;;;;;0.70;0.70;;;;;;;;;;5308037;26;20258;-79
2024/04/09 11:36:14;;;;;;;0.68;0.68;;;;;;;;;;5304304;26;20376;-80
2024/04/09 11:38:42;;;;;;;1.10;1.08;;;;;;;;;;5307029;26;20262;-78
2024/04/09 11:41:08;;;;;;;0.60;0.60;;;;;;;;;;5307714;26;20246;-81
2024/04/09 11:43:38;;;;;;;0.65;0.65;;;;;;;;;;5309783;26;20247;-79
2024/04/09 11:46:04;;;;;;;0.55;0.55;;;;;;;;;;5312383;26;20254;-80
2024/04/09 11:48:32;;;;;;;0.52;0.52;;;;;;;;;;5306957;26;20665;-79
2024/04/09 11:50:57;;;;;;;0.60;0.60;;;;;;;;;;5304104;26;21246;-79
2024/04/09 11:53:25;;;;;;;0.70;0.70;;;;;;;;;;5306032;26;20771;-78
2024/04/09 11:55:53;;;;;;;0.70;0.70;;;;;;;;;;5304891;26;20299;-79
2024/04/09 11:58:21;;;;;;;0.70;0.70;;;;;;;;;;5305538;26;20624;-78
2024/04/09 12:00:49;;;;;;;0.60;0.60;;;;;;;;;;5306950;26;20262;-81
2024/04/09 12:03:17;;;;;;;0.60;0.60;;;;;;;;;;5304371;26;20242;-79
2024/04/09 12:05:42;;;;;;;0.60;0.60;;;;;;;;;;5301091;26;20314;-79
2024/04/09 12:08:10;;;;;;;0.60;0.60;;;;;;;;;;5307254;26;20284;-79
2024/04/09 12:10:36;;;;;;;0.70;0.70;;;;;;;;;;5305648;26;20926;-79
2024/04/09 12:13:04;;;;;;;0.68;0.68;;;;;;;;;;5306237;26;20312;-80
2024/04/09 12:15:30;;;;;;;0.60;0.60;;;;;;;;;;5304498;26;21736;-78
2024/04/09 12:18:00;;;;;;;0.63;0.63;;;;;;;;;;5307460;26;20919;-76
2024/04/09 12:20:26;;;;;;;0.60;0.60;;;;;;;;;;5299228;26;21455;-80
2024/04/09 12:22:54;;;;;;;0.90;0.90;;;;;;;;;;5303702;26;20336;-75
2024/04/09 12:25:20;;;;;;;0.60;0.60;;;;;;;;;;5306524;26;20298;-78
2024/04/09 12:27:48;;;;;;;0.70;0.70;;;;;;;;;;5309198;26;20744;-77
2024/04/09 12:30:15;;;;;;;0.60;0.60;;;;;;;;;;5289775;26;20323;-77
2024/04/09 12:32:43;;;;;;;0.63;0.63;;;;;;;;;;5288711;26;20337;-77
2024/04/09 12:35:11;;;;;;;0.60;0.60;;;;;;;;;;5293843;26;20307;-77
2024/04/09 12:37:40;;;;;;;0.70;0.70;;;;;;;;;;5296200;26;20247;-78
2024/04/09 12:40:05;;;;;;;0.60;0.60;;;;;;;;;;5297114;26;20378;-77
2024/04/09 12:42:33;;;;;;;0.70;0.70;;;;;;;;;;5299383;26;20384;-76
2024/04/09 12:44:59;;;;;;;0.70;0.70;;;;;;;;;;5295237;26;20976;-78
2024/04/09 12:47:27;;;;;;;0.70;0.70;;;;;;;;;;5309192;26;20243;-77
2024/04/09 12:49:52;;;;;;;0.70;0.70;;;;;;;;;;5291459;26;20824;-78
2024/04/09 12:52:23;;;;;;;0.70;0.70;;;;;;;;;;5296782;26;20653;-79
2024/04/09 12:54:48;;;;;;;0.70;0.70;;;;;;;;;;5301660;26;20630;-77
2024/04/09 12:57:17;;;;;;;0.73;0.73;;;;;;;;;;5300784;26;20247;-79
2024/04/09 12:59:43;;;;;;;0.77;0.77;;;;;;;;;;5290932;26;20365;-78
2024/04/09 13:02:15;;;;;;;0.70;0.70;;;;;;;;;;5296656;26;20759;-76
2024/04/09 13:04:42;;;;;;;0.60;0.60;;;;;;;;;;5290229;26;20791;-78
2024/04/09 13:07:10;;;;;;;0.60;0.60;;;;;;;;;;5298296;26;20273;-77
2024/04/09 13:09:38;;;;;;;0.70;0.70;;;;;;;;;;5296453;26;21168;-78
2024/04/09 13:12:07;;;;;;;0.73;0.73;;;;;;;;;;5299133;26;20243;-78
2024/04/09 13:14:33;;;;;;;0.60;0.60;;;;;;;;;;5294329;26;20555;-76
2024/04/09 13:17:01;;;;;;;0.60;0.60;;;;;;;;;;5299259;26;20594;-78
2024/04/09 13:19:27;;;;;;;0.60;0.60;;;;;;;;;;5294072;26;20243;-78
2024/04/09 13:21:55;;;;;;;0.60;0.60;;;;;;;;;;5295869;26;20604;-76
2024/04/09 13:24:20;;;;;;;0.60;0.60;;;;;;;;;;5295475;26;20302;-79
2024/04/09 13:26:51;;;;;;;0.55;0.55;;;;;;;;;;5295485;26;20294;-75
2024/04/09 13:29:16;;;;;;;0.60;0.60;;;;;;;;;;5295747;26;20314;-78
2024/04/09 13:31:44;;;;;;;0.60;0.60;;;;;;;;;;5298660;26;20338;-78
2024/04/09 13:34:09;;;;;;;0.60;0.60;;;;;;;;;;5297836;26;20310;-76
2024/04/09 13:36:37;;;;;;;0.55;0.55;;;;;;;;;;5298497;26;20341;-77
2024/04/09 13:39:03;;;;;;;0.63;0.63;;;;;;;;;;5301052;26;20314;-78
2024/04/09 13:41:32;;;;;;;0.70;0.70;;;;;;;;;;5308685;26;20335;-76
2024/04/09 13:44:00;;;;;;;0.60;0.60;;;;;;;;;;5297897;26;20246;-78
2024/04/09 13:46:28;;;;;;;0.60;0.60;;;;;;;;;;5299133;26;20786;-77
2024/04/09 13:48:53;;;;;;;0.70;0.70;;;;;;;;;;5299942;26;20299;-78
2024/04/09 13:51:21;;;;;;;0.70;0.70;;;;;;;;;;5301820;26;20935;-77
2024/04/09 13:53:47;;;;;;;0.50;0.50;;;;;;;;;;5312640;26;20330;-77
2024/04/09 13:56:15;;;;;;;0.60;0.60;;;;;;;;;;5315642;26;20273;-77
2024/04/09 13:58:41;;;;;;;0.70;0.70;;;;;;;;;;5296198;26;20254;-77
2024/04/09 14:01:11;;;;;;;0.73;0.73;;;;;;;;;;5290653;26;20290;-76
2024/04/09 14:03:37;;;;;;;0.70;0.70;;;;;;;;;;5292798;26;20263;-77
2024/04/09 14:06:05;;;;;;;0.65;0.65;;;;;;;;;;5293131;26;20360;-76
2024/04/09 14:08:31;;;;;;;0.60;0.60;;;;;;;;;;5295363;26;20574;-78
2024/04/09 14:11:01;;;;;;;0.60;0.60;;;;;;;;;;5297258;26;20242;-77
2024/04/09 14:13:28;;;;;;;0.70;0.70;;;;;;;;;;5294440;26;20480;-79
2024/04/09 14:15:56;;;;;;;0.63;0.63;;;;;;;;;;5295666;26;20631;-77
2024/04/09 14:18:29;;;;;;;0.60;0.60;;;;;;;;;;5296007;26;20251;-77
2024/04/09 14:21:02;;;;;;;0.55;0.55;;;;;;;;;;5292586;26;20931;-75
2024/04/09 14:23:27;;;;;;;0.60;0.60;;;;;;;;;;5296059;26;21195;-76
2024/04/09 14:25:55;;;;;;;0.50;0.50;;;;;;;;;;5292294;26;20263;-79
2024/04/09 14:28:21;;;;;;;0.60;0.60;;;;;;;;;;5295435;26;21176;-77
2024/04/09 14:30:49;;;;;;;0.60;0.60;;;;;;;;;;5294414;26;20378;-76
2024/04/09 14:33:14;;;;;;;0.60;0.60;;;;;;;;;;5294110;26;20243;-79
2024/04/09 14:35:46;;;;;;;0.60;0.60;;;;;;;;;;5289098;26;20289;-77
2024/04/09 14:38:12;;;;;;;0.60;0.60;;;;;;;;;;5300876;26;20613;-78
2024/04/09 14:40:40;;;;;;;0.60;0.60;;;;;;;;;;5298951;26;20251;-78
2024/04/09 14:43:06;;;;;;;0.60;0.60;;;;;;;;;;5298838;26;21104;-77
2024/04/09 14:45:34;;;;;;;0.50;0.50;;;;;;;;;;5300362;26;21023;-78